createdAt,value
2019-05-26T00:02:22.987Z,99112.77
2019-05-26T00:04:49.633Z,99106.52
2019-05-26T00:07:29.749Z,99110.94
2019-05-26T00:09:44.564Z,99115.52
2019-05-26T00:12:15.751Z,99122.60
2019-05-26T00:14:39.679Z,99111.01
2019-05-26T00:17:06.270Z,99110.61
2019-05-26T00:19:32.902Z,99109.19
2019-05-26T00:21:59.529Z,99109.95
2019-05-26T00:24:26.132Z,99109.03
2019-05-26T00:26:52.841Z,99114.80
2019-05-26T00:29:19.443Z,99111.56
2019-05-26T00:31:46.036Z,99111.34
2019-05-26T00:34:12.650Z,99108.10
2019-05-26T00:36:39.254Z,99110.06
2019-05-26T00:39:06.774Z,99111.17
2019-05-26T00:41:33.374Z,99108.64
2019-05-26T00:43:59.977Z,99114.11
2019-05-26T00:46:26.786Z,99101.41
2019-05-26T00:48:53.553Z,99101.67
2019-05-26T00:51:20.180Z,99104.12
2019-05-26T00:53:46.812Z,99106.43
2019-05-26T00:56:13.393Z,99104.03
2019-05-26T00:58:40.042Z,99103.36
2019-05-26T01:01:06.678Z,99101.58
2019-05-26T01:03:33.299Z,99095.19
2019-05-26T01:05:59.892Z,99103.31
2019-05-26T01:08:26.511Z,99109.27
2019-05-26T01:10:53.134Z,99103.71
2019-05-26T01:13:19.750Z,99110.05
2019-05-26T01:15:46.347Z,99109.69
2019-05-26T01:18:12.983Z,99108.76
2019-05-26T01:20:39.615Z,99109.86
2019-05-26T01:23:06.269Z,99102.14
2019-05-26T01:25:32.851Z,99104.22
2019-05-26T01:27:59.500Z,99108.87
2019-05-26T01:30:26.123Z,99103.55
2019-05-26T01:32:52.722Z,99104.52
2019-05-26T01:35:19.337Z,99102.83
2019-05-26T01:37:45.956Z,99102.48
2019-05-26T01:40:12.542Z,99101.98
2019-05-26T01:42:39.181Z,99109.63
2019-05-26T01:45:05.764Z,99112.28
2019-05-26T01:47:32.409Z,99112.28
2019-05-26T01:49:59.010Z,99108.78
2019-05-26T01:52:25.665Z,99111.93
2019-05-26T01:54:52.294Z,99118.10
2019-05-26T01:57:18.895Z,99119.92
2019-05-26T01:59:45.485Z,99119.30
2019-05-26T02:02:12.142Z,99121.48
2019-05-26T02:04:38.793Z,99131.16
2019-05-26T02:07:05.447Z,99132.98
2019-05-26T02:09:32.048Z,99133.59
2019-05-26T02:11:58.639Z,99134.70
2019-05-26T02:14:25.356Z,99140.42
2019-05-26T02:16:52.031Z,99138.67
2019-05-26T02:19:18.675Z,99140.26
2019-05-26T02:21:45.271Z,99144.88
2019-05-26T02:24:11.862Z,99140.03
2019-05-26T02:26:38.553Z,99138.34
2019-05-26T02:29:05.168Z,99141.85
2019-05-26T02:31:31.787Z,99144.88
2019-05-26T02:33:58.381Z,99141.72
2019-05-26T02:36:25.017Z,99136.88
2019-05-26T02:39:01.822Z,99123.56
2019-05-26T02:41:19.976Z,99138.08
2019-05-26T02:43:46.614Z,99129.47
2019-05-26T02:46:13.221Z,99132.36
2019-05-26T02:48:39.845Z,99126.75
2019-05-26T02:51:06.439Z,99131.20
2019-05-26T02:53:33.051Z,99129.25
2019-05-26T02:55:59.648Z,99129.83
2019-05-26T02:58:26.284Z,99118.20
2019-05-26T03:00:52.910Z,99125.53
2019-05-26T03:03:19.545Z,99126.38
2019-05-26T03:05:46.193Z,99123.39
2019-05-26T03:08:12.786Z,99120.73
2019-05-26T03:10:39.379Z,99110.69
2019-05-26T03:13:06.017Z,99110.69
2019-05-26T03:15:32.610Z,99108.52
2019-05-26T03:17:59.288Z,99109.36
2019-05-26T03:20:25.917Z,99116.64
2019-05-26T03:22:52.556Z,99117.97
2019-05-26T03:25:19.346Z,99125.12
2019-05-26T03:27:45.961Z,99121.12
2019-05-26T03:30:12.824Z,99125.96
2019-05-26T03:32:39.578Z,99123.16
2019-05-26T03:35:06.312Z,99131.87
2019-05-26T03:37:33.044Z,99136.71
2019-05-26T03:39:59.634Z,99134.38
2019-05-26T03:42:26.223Z,99137.52
2019-05-26T03:44:52.842Z,99142.66
2019-05-26T03:47:19.471Z,99142.20
2019-05-26T03:49:46.120Z,99137.63
2019-05-26T03:52:12.716Z,99143.44
2019-05-26T03:54:39.311Z,99140.91
2019-05-26T03:57:05.949Z,99145.63
2019-05-26T03:59:32.570Z,99149.97
2019-05-26T04:01:59.209Z,99149.97
2019-05-26T04:04:25.822Z,99159.91
2019-05-26T04:06:52.416Z,99157.38
2019-05-26T04:09:19.071Z,99151.34
2019-05-26T04:11:45.731Z,99153.52
2019-05-26T04:14:12.330Z,99152.89
2019-05-26T04:16:38.965Z,99152.64
2019-05-26T04:19:05.558Z,99142.08
2019-05-26T04:21:32.178Z,99146.17
2019-05-26T04:23:58.791Z,99141.97
2019-05-26T04:26:25.396Z,99141.93
2019-05-26T04:28:52.092Z,99147.19
2019-05-26T04:31:18.693Z,99145.81
2019-05-26T04:33:45.330Z,99133.43
2019-05-26T04:36:11.921Z,99128.38
2019-05-26T04:38:38.510Z,99125.17
2019-05-26T04:41:05.108Z,99130.95
2019-05-26T04:43:31.748Z,99127.39
2019-05-26T04:45:58.364Z,99126.50
2019-05-26T04:48:24.973Z,99133.11
2019-05-26T04:50:51.669Z,99140.05
2019-05-26T04:53:18.320Z,99144.00
2019-05-26T04:55:44.980Z,99145.61
2019-05-26T04:58:11.689Z,99150.39
2019-05-26T05:00:38.295Z,99158.70
2019-05-26T05:03:04.897Z,99155.59
2019-05-26T05:05:31.523Z,99158.20
2019-05-26T05:07:58.115Z,99160.45
2019-05-26T05:10:41.026Z,99163.38
2019-05-26T05:12:53.073Z,99164.88
2019-05-26T05:15:19.708Z,99161.13
2019-05-26T05:17:46.367Z,99161.27
2019-05-26T05:20:13.023Z,99161.07
2019-05-26T05:22:39.656Z,99163.88
2019-05-26T05:25:13.908Z,99163.33
2019-05-26T05:27:34.600Z,99167.44
2019-05-26T05:30:01.216Z,99175.06
2019-05-26T05:32:27.816Z,99172.88
2019-05-26T05:34:54.447Z,99170.30
2019-05-26T05:37:24.924Z,99164.59
2019-05-26T05:39:49.445Z,99162.52
2019-05-26T05:42:16.080Z,99162.78
2019-05-26T05:44:42.677Z,99159.18
2019-05-26T05:47:09.313Z,99167.58
2019-05-26T05:49:35.910Z,99162.28
2019-05-26T05:52:02.562Z,99169.77
2019-05-26T05:54:29.160Z,99163.45
2019-05-26T05:56:55.957Z,99170.89
2019-05-26T05:59:22.656Z,99160.89
2019-05-26T06:01:49.258Z,99166.61
2019-05-26T06:04:15.862Z,99167.66
2019-05-26T06:06:42.479Z,99167.22
2019-05-26T06:09:09.071Z,99169.10
2019-05-26T06:11:35.822Z,99171.57
2019-05-26T06:14:02.416Z,99173.99
2019-05-26T06:16:29.006Z,99173.56
2019-05-26T06:18:55.618Z,99178.30
2019-05-26T06:21:22.211Z,99174.81
2019-05-26T06:23:48.810Z,99171.03
2019-05-26T06:26:15.456Z,99170.09
2019-05-26T06:28:42.053Z,99179.74
2019-05-26T06:31:08.694Z,99189.39
2019-05-26T06:33:35.283Z,99182.67
2019-05-26T06:36:01.938Z,99189.00
2019-05-26T06:38:28.630Z,99188.94
2019-05-26T06:40:55.229Z,99191.61
2019-05-26T06:43:21.845Z,99192.59
2019-05-26T06:45:48.577Z,99190.69
2019-05-26T06:48:15.214Z,99190.78
2019-05-26T06:50:41.857Z,99188.27
2019-05-26T06:53:08.461Z,99190.08
2019-05-26T06:55:36.027Z,99192.78
2019-05-26T06:58:02.626Z,99189.41
2019-05-26T07:00:29.220Z,99184.53
2019-05-26T07:02:55.834Z,99182.67
2019-05-26T07:05:22.423Z,99187.19
2019-05-26T07:07:49.055Z,99185.80
2019-05-26T07:10:15.697Z,99192.14
2019-05-26T07:12:42.291Z,99195.61
2019-05-26T07:15:08.917Z,99195.86
2019-05-26T07:17:35.504Z,99196.82
2019-05-26T07:20:02.136Z,99198.24
2019-05-26T07:22:28.719Z,99199.13
2019-05-26T07:24:55.347Z,99202.03
2019-05-26T07:27:21.996Z,99198.70
2019-05-26T07:29:48.619Z,99198.73
2019-05-26T07:32:15.223Z,99197.23
2019-05-26T07:34:41.835Z,99198.77
2019-05-26T07:37:08.468Z,99196.80
2019-05-26T07:39:35.054Z,99194.96
2019-05-26T07:42:09.856Z,99198.17
2019-05-26T07:44:30.100Z,99192.81
2019-05-26T07:46:56.730Z,99189.84
2019-05-26T07:49:23.386Z,99185.85
2019-05-26T07:51:49.980Z,99186.19
2019-05-26T07:54:25.238Z,99184.72
2019-05-26T07:56:44.943Z,99189.76
2019-05-26T07:59:11.672Z,99183.94
2019-05-26T08:01:38.302Z,99185.45
2019-05-26T08:04:04.901Z,99185.34
2019-05-26T08:06:31.529Z,99193.73
2019-05-26T08:08:58.166Z,99196.17
2019-05-26T08:11:24.974Z,99189.98
2019-05-26T08:13:51.578Z,99190.83
2019-05-26T08:16:18.232Z,99189.16
2019-05-26T08:18:44.840Z,99189.19
2019-05-26T08:21:11.476Z,99191.53
2019-05-26T08:23:38.076Z,99194.21
2019-05-26T08:26:04.728Z,99188.02
2019-05-26T08:28:31.354Z,99193.91
2019-05-26T08:30:57.950Z,99190.84
2019-05-26T08:33:24.589Z,99188.45
2019-05-26T08:35:51.226Z,99188.91
2019-05-26T08:38:17.822Z,99188.89
2019-05-26T08:40:44.439Z,99184.11
2019-05-26T08:43:11.043Z,99187.23
2019-05-26T08:45:37.800Z,99187.80
2019-05-26T08:48:04.395Z,99173.22
2019-05-26T08:50:34.107Z,99177.53
2019-05-26T08:52:59.349Z,99175.39
2019-05-26T08:55:25.935Z,99178.64
2019-05-26T08:57:52.566Z,99177.48
2019-05-26T09:00:19.164Z,99169.23
2019-05-26T09:02:45.800Z,99175.48
2019-05-26T09:05:12.525Z,99176.32
2019-05-26T09:07:39.123Z,99174.05
2019-05-26T09:10:05.775Z,99171.33
2019-05-26T09:12:32.373Z,99174.32
2019-05-26T09:14:58.956Z,99177.50
2019-05-26T09:17:25.584Z,99176.05
2019-05-26T09:19:52.181Z,99172.52
2019-05-26T09:22:18.800Z,99173.41
2019-05-26T09:24:45.398Z,99179.13
2019-05-26T09:27:12.032Z,99165.66
2019-05-26T09:29:38.660Z,99168.63
2019-05-26T09:32:05.276Z,99174.85
2019-05-26T09:34:31.896Z,99163.72
2019-05-26T09:36:58.491Z,99164.02
2019-05-26T09:39:25.131Z,99166.52
2019-05-26T09:41:51.772Z,99177.22
2019-05-26T09:44:18.374Z,99171.25
2019-05-26T09:46:45.010Z,99170.93
2019-05-26T09:49:11.625Z,99160.48
2019-05-26T09:51:38.224Z,99164.44
2019-05-26T09:54:04.875Z,99157.84
2019-05-26T09:56:33.253Z,99161.47
2019-05-26T09:58:59.788Z,99158.84
2019-05-26T10:01:26.665Z,99153.26
2019-05-26T10:03:53.245Z,99157.55
2019-05-26T10:06:19.899Z,99156.52
2019-05-26T10:08:46.495Z,99149.01
2019-05-26T10:11:13.099Z,99158.36
2019-05-26T10:13:39.760Z,99149.66
2019-05-26T10:16:06.360Z,99162.06
2019-05-26T10:18:32.965Z,99152.73
2019-05-26T10:20:59.599Z,99157.00
2019-05-26T10:23:26.216Z,99150.49
2019-05-26T10:25:52.822Z,99146.99
2019-05-26T10:28:19.425Z,99141.25
2019-05-26T10:30:46.061Z,99145.90
2019-05-26T10:33:13.011Z,99149.89
2019-05-26T10:35:39.719Z,99144.35
2019-05-26T10:38:06.406Z,99145.39
2019-05-26T10:40:33.052Z,99143.97
2019-05-26T10:42:59.642Z,99141.77
2019-05-26T10:45:26.311Z,99138.80
2019-05-26T10:47:52.911Z,99147.50
2019-05-26T10:50:19.500Z,99137.86
2019-05-26T10:52:46.105Z,99144.84
2019-05-26T10:55:12.691Z,99139.09
2019-05-26T10:57:39.300Z,99144.08
2019-05-26T11:00:06.007Z,99147.66
2019-05-26T11:02:32.631Z,99142.06
2019-05-26T11:04:59.223Z,99130.38
2019-05-26T11:07:26.965Z,99130.46
2019-05-26T11:09:53.703Z,99128.02
2019-05-26T11:12:20.362Z,99129.11
2019-05-26T11:14:46.948Z,99125.17
2019-05-26T11:17:13.540Z,99124.82
2019-05-26T11:19:40.175Z,99114.72
2019-05-26T11:22:06.768Z,99122.27
2019-05-26T11:24:33.398Z,99119.94
2019-05-26T11:27:10.191Z,99112.28
2019-05-26T11:29:28.389Z,99107.56
2019-05-26T11:31:55.011Z,99108.33
2019-05-26T11:34:21.595Z,99117.22
2019-05-26T11:36:48.283Z,99108.20
2019-05-26T11:39:16.773Z,99108.38
2019-05-26T11:41:43.411Z,99101.94
2019-05-26T11:44:17.813Z,99099.13
2019-05-26T11:46:38.399Z,99096.37
2019-05-26T11:49:05.048Z,99096.59
2019-05-26T11:51:31.716Z,99095.02
2019-05-26T11:53:58.334Z,99089.19
2019-05-26T11:56:25.049Z,99085.69
2019-05-26T11:58:51.649Z,99086.42
2019-05-26T12:01:18.262Z,99084.95
2019-05-26T12:03:44.983Z,99079.12
2019-05-26T12:06:11.578Z,99074.13
2019-05-26T12:08:38.198Z,99065.82
2019-05-26T12:11:04.835Z,99068.56
2019-05-26T12:13:31.505Z,99074.94
2019-05-26T12:15:58.112Z,99065.59
2019-05-26T12:18:24.722Z,99053.58
2019-05-26T12:20:51.379Z,99057.87
2019-05-26T12:23:17.968Z,99050.57
2019-05-26T12:25:44.552Z,99055.26
2019-05-26T12:28:11.225Z,99052.69
2019-05-26T12:30:37.810Z,99052.81
2019-05-26T12:33:04.404Z,99044.03
2019-05-26T12:35:31.038Z,99049.23
2019-05-26T12:37:57.680Z,99050.09
2019-05-26T12:40:24.331Z,99051.55
2019-05-26T12:42:50.922Z,99047.30
2019-05-26T12:45:17.516Z,99042.11
2019-05-26T12:47:44.142Z,99039.48
2019-05-26T12:50:10.744Z,99033.37
2019-05-26T12:52:37.394Z,99038.66
2019-05-26T12:55:03.995Z,99029.55
2019-05-26T12:57:30.591Z,99021.27
2019-05-26T12:59:57.209Z,99027.23
2019-05-26T13:02:23.835Z,99019.73
2019-05-26T13:04:50.467Z,99019.25
2019-05-26T13:07:17.067Z,99020.75
2019-05-26T13:09:43.678Z,99015.73
2019-05-26T13:12:10.302Z,99019.66
2019-05-26T13:14:36.947Z,99020.47
2019-05-26T13:17:03.555Z,99016.19
2019-05-26T13:19:30.319Z,99006.84
2019-05-26T13:21:56.947Z,99016.35
2019-05-26T13:24:23.574Z,99016.17
2019-05-26T13:26:50.205Z,99011.84
2019-05-26T13:29:16.822Z,99007.77
2019-05-26T13:31:43.444Z,99009.59
2019-05-26T13:34:10.055Z,99007.23
2019-05-26T13:36:36.651Z,99009.63
2019-05-26T13:39:03.272Z,99008.45
2019-05-26T13:41:29.896Z,99004.43
2019-05-26T13:43:56.491Z,99002.45
2019-05-26T13:46:23.097Z,99005.23
2019-05-26T13:48:49.719Z,99002.75
2019-05-26T13:51:16.349Z,99002.06
2019-05-26T13:53:42.947Z,99004.96
2019-05-26T13:56:09.580Z,99000.95
2019-05-26T13:58:36.248Z,98999.23
2019-05-26T14:01:03.021Z,98998.59
2019-05-26T14:03:29.608Z,99000.28
2019-05-26T14:05:56.244Z,99004.33
2019-05-26T14:08:22.883Z,98995.30
2019-05-26T14:10:49.562Z,98990.62
2019-05-26T14:13:16.154Z,99000.58
2019-05-26T14:15:42.801Z,98993.07
2019-05-26T14:18:09.424Z,98994.09
2019-05-26T14:20:36.021Z,98997.17
2019-05-26T14:23:02.747Z,98994.20
2019-05-26T14:25:29.505Z,98988.27
2019-05-26T14:27:56.096Z,98982.05
2019-05-26T14:30:22.696Z,98973.99
2019-05-26T14:32:49.344Z,98969.77
2019-05-26T14:35:16.020Z,98968.23
2019-05-26T14:37:42.679Z,98959.59
2019-05-26T14:40:09.314Z,98965.95
2019-05-26T14:42:36.002Z,98972.39
2019-05-26T14:45:04.125Z,98963.98
2019-05-26T14:47:31.114Z,98954.05
2019-05-26T14:49:57.754Z,98959.57
2019-05-26T14:52:24.336Z,98966.63
2019-05-26T14:54:50.958Z,98964.98
2019-05-26T14:57:17.543Z,98965.28
2019-05-26T14:59:44.141Z,98963.70
2019-05-26T15:02:10.774Z,98965.37
2019-05-26T15:04:37.364Z,98961.30
2019-05-26T15:07:04.008Z,98959.57
2019-05-26T15:09:30.648Z,98961.47
2019-05-26T15:11:57.261Z,98959.89
2019-05-26T15:14:23.910Z,98955.53
2019-05-26T15:16:50.576Z,98951.98
2019-05-26T15:19:17.737Z,98951.92
2019-05-26T15:21:44.318Z,98950.89
2019-05-26T15:24:10.966Z,98942.98
2019-05-26T15:26:37.613Z,98953.40
2019-05-26T15:29:04.209Z,98949.94
2019-05-26T15:31:30.799Z,98945.55
2019-05-26T15:33:57.436Z,98948.63
2019-05-26T15:36:24.037Z,98947.36
2019-05-26T15:38:50.646Z,98948.91
2019-05-26T15:41:17.358Z,98947.97
2019-05-26T15:43:43.998Z,98953.05
2019-05-26T15:46:24.148Z,98949.78
2019-05-26T15:48:38.972Z,98949.23
2019-05-26T15:51:05.602Z,98951.55
2019-05-26T15:53:32.195Z,98952.54
2019-05-26T15:55:58.817Z,98944.45
2019-05-26T15:58:25.450Z,98946.86
2019-05-26T16:00:52.083Z,98962.92
2019-05-26T16:03:18.723Z,98955.93
2019-05-26T16:05:45.359Z,98952.59
2019-05-26T16:08:12.003Z,98959.70
2019-05-26T16:10:38.597Z,98955.42
2019-05-26T16:13:05.284Z,98956.55
2019-05-26T16:15:31.971Z,98955.09
2019-05-26T16:17:58.579Z,98950.39
2019-05-26T16:20:25.215Z,98950.67
2019-05-26T16:22:51.948Z,98951.39
2019-05-26T16:25:18.542Z,98946.89
2019-05-26T16:27:45.148Z,98945.86
2019-05-26T16:30:11.794Z,98940.21
2019-05-26T16:32:38.494Z,98955.49
2019-05-26T16:35:05.114Z,98949.20
2019-05-26T16:37:31.782Z,98944.27
2019-05-26T16:39:58.406Z,98951.53
2019-05-26T16:42:25.071Z,98952.00
2019-05-26T16:44:51.700Z,98953.54
2019-05-26T16:47:18.368Z,98946.92
2019-05-26T16:49:45.012Z,98944.30
2019-05-26T16:52:11.602Z,98951.55
2019-05-26T16:54:38.190Z,98954.32
2019-05-26T16:57:04.837Z,98961.15
2019-05-26T16:59:31.442Z,98956.13
2019-05-26T17:01:58.141Z,98960.96
2019-05-26T17:04:24.789Z,98958.33
2019-05-26T17:06:51.392Z,98955.69
2019-05-26T17:09:18.021Z,98957.45
2019-05-26T17:11:44.668Z,98962.73
2019-05-26T17:14:11.274Z,98959.39
2019-05-26T17:16:37.910Z,98959.27
2019-05-26T17:19:04.578Z,98966.92
2019-05-26T17:21:31.275Z,98956.50
2019-05-26T17:23:57.901Z,98966.69
2019-05-26T17:26:24.512Z,98958.84
2019-05-26T17:28:51.206Z,98963.27
2019-05-26T17:31:19.671Z,98963.84
2019-05-26T17:33:46.340Z,98961.24
2019-05-26T17:36:12.941Z,98965.99
2019-05-26T17:38:39.606Z,98961.48
2019-05-26T17:41:06.235Z,98963.22
2019-05-26T17:43:32.866Z,98963.60
2019-05-26T17:45:59.480Z,98967.00
2019-05-26T17:48:26.076Z,98962.17
2019-05-26T17:50:52.703Z,98962.55
2019-05-26T17:53:19.351Z,98966.47
2019-05-26T17:55:45.941Z,98964.34
2019-05-26T17:58:12.547Z,98964.10
2019-05-26T18:00:39.176Z,98971.09
2019-05-26T18:03:05.815Z,98968.34
2019-05-26T18:05:32.430Z,98965.55
2019-05-26T18:07:59.054Z,98963.09
2019-05-26T18:10:25.744Z,98965.04
2019-05-26T18:12:52.336Z,98965.46
2019-05-26T18:15:19.133Z,98971.92
2019-05-26T18:17:47.236Z,98966.47
2019-05-26T18:20:14.095Z,98962.30
2019-05-26T18:22:40.741Z,98965.25
2019-05-26T18:25:07.525Z,98961.81
2019-05-26T18:27:34.245Z,98967.42
2019-05-26T18:30:02.822Z,98972.37
2019-05-26T18:32:29.486Z,98970.74
2019-05-26T18:34:56.125Z,98969.11
2019-05-26T18:37:22.778Z,98964.30
2019-05-26T18:39:49.374Z,98967.03
2019-05-26T18:42:15.962Z,98968.93
2019-05-26T18:44:42.576Z,98980.25
2019-05-26T18:47:09.251Z,98979.81
2019-05-26T18:49:35.885Z,98978.17
2019-05-26T18:52:02.682Z,98984.76
2019-05-26T18:54:29.285Z,98985.63
2019-05-26T18:56:55.911Z,98988.86
2019-05-26T18:59:22.568Z,98989.55
2019-05-26T19:01:49.238Z,98989.07
2019-05-26T19:04:15.830Z,98993.63
2019-05-26T19:06:42.412Z,98994.82
2019-05-26T19:09:09.252Z,98996.50
2019-05-26T19:11:35.844Z,98992.97
2019-05-26T19:14:02.440Z,98990.27
2019-05-26T19:16:29.076Z,98996.16
2019-05-26T19:18:55.678Z,99000.86
2019-05-26T19:21:22.289Z,98996.82
2019-05-26T19:26:38.569Z,98999.01
2019-05-26T19:29:05.226Z,99001.19
2019-05-26T19:31:31.819Z,99000.69
2019-05-26T19:33:58.418Z,98995.80
2019-05-26T19:36:25.195Z,98996.31
2019-05-26T19:38:51.876Z,99000.86
2019-05-26T19:41:18.526Z,98992.12
2019-05-26T19:43:45.145Z,98995.98
2019-05-26T19:46:11.785Z,99001.05
2019-05-26T19:48:38.489Z,99001.88
2019-05-26T19:51:05.109Z,99001.38
2019-05-26T19:53:31.713Z,98999.52
2019-05-26T19:55:58.352Z,98999.19
2019-05-26T19:58:28.448Z,99000.71
2019-05-26T20:00:53.303Z,98986.59
2019-05-26T20:03:19.929Z,98993.50
2019-05-26T20:05:46.520Z,98987.31
2019-05-26T20:08:13.567Z,98994.55
2019-05-26T20:10:40.211Z,98999.10
2019-05-26T20:13:06.796Z,98994.22
2019-05-26T20:15:33.415Z,98994.40
2019-05-26T20:18:00.060Z,98989.88
2019-05-26T20:20:26.825Z,98990.23
2019-05-26T20:22:53.450Z,98992.27
2019-05-26T20:25:20.044Z,98992.45
2019-05-26T20:27:46.644Z,98988.59
2019-05-26T20:30:13.260Z,98992.63
2019-05-26T20:32:39.957Z,98986.11
2019-05-26T20:35:06.603Z,98979.88
2019-05-26T20:37:33.233Z,98986.61
2019-05-26T20:39:59.862Z,98978.71
2019-05-26T20:42:26.571Z,98986.80
2019-05-26T20:44:53.236Z,98988.64
2019-05-26T20:47:19.868Z,98979.91
2019-05-26T20:49:46.496Z,98978.56
2019-05-26T20:52:13.179Z,98984.64
2019-05-26T20:54:39.785Z,98980.77
2019-05-26T20:57:06.387Z,98986.34
2019-05-26T20:59:33.010Z,98988.37
2019-05-26T21:01:59.588Z,98986.69
2019-05-26T21:04:26.221Z,98979.52
2019-05-26T21:06:52.848Z,98983.39
2019-05-26T21:09:19.499Z,98986.95
2019-05-26T21:11:46.127Z,98986.46
2019-05-26T21:14:12.772Z,98987.83
2019-05-26T21:16:39.414Z,98989.56
2019-05-26T21:19:05.995Z,98992.78
2019-05-26T21:21:32.630Z,98998.32
2019-05-26T21:23:59.423Z,98996.03
2019-05-26T21:26:26.006Z,98993.38
2019-05-26T21:28:52.617Z,98994.78
2019-05-26T21:31:19.223Z,98987.92
2019-05-26T21:33:45.846Z,98989.14
2019-05-26T21:36:12.467Z,98987.16
2019-05-26T21:38:39.072Z,98985.48
2019-05-26T21:41:05.725Z,98982.68
2019-05-26T21:43:32.514Z,98991.26
2019-05-26T21:45:59.117Z,98991.95
2019-05-26T21:48:25.771Z,98986.45
2019-05-26T21:50:52.447Z,98989.28
2019-05-26T21:53:19.043Z,98991.50
2019-05-26T21:55:45.660Z,98988.66
2019-05-26T21:58:12.285Z,98984.30
2019-05-26T22:00:38.899Z,98980.80
2019-05-26T22:03:05.543Z,98980.30
2019-05-26T22:05:32.301Z,98979.64
2019-05-26T22:07:58.919Z,98976.98
2019-05-26T22:10:25.543Z,98984.37
2019-05-26T22:12:52.143Z,98981.02
2019-05-26T22:15:18.798Z,98979.03
2019-05-26T22:17:45.442Z,98981.71
2019-05-26T22:20:12.034Z,98973.34
2019-05-26T22:22:38.686Z,98975.86
2019-05-26T22:25:05.285Z,98975.81
2019-05-26T22:27:31.893Z,98978.69
2019-05-26T22:29:58.512Z,98985.39
2019-05-26T22:32:25.105Z,98977.49
2019-05-26T22:34:51.801Z,98981.03
2019-05-26T22:37:18.419Z,98981.68
2019-05-26T22:39:45.023Z,98984.55
2019-05-26T22:42:11.639Z,98977.98
2019-05-26T22:44:38.241Z,98983.34
2019-05-26T22:47:04.906Z,98974.27
2019-05-26T22:49:31.498Z,98977.96
2019-05-26T22:51:58.113Z,98978.23
2019-05-26T22:54:24.764Z,98970.52
2019-05-26T22:56:51.369Z,98962.78
2019-05-26T22:59:17.959Z,98973.47
2019-05-26T23:01:44.611Z,98967.44
2019-05-26T23:04:12.047Z,98969.25
2019-05-26T23:06:38.695Z,98955.48
2019-05-26T23:09:05.291Z,98960.35
2019-05-26T23:11:31.888Z,98957.66
2019-05-26T23:13:58.530Z,98952.61
2019-05-26T23:16:25.120Z,98953.58
2019-05-26T23:18:51.752Z,98954.42
2019-05-26T23:21:18.369Z,98957.42
2019-05-26T23:23:44.964Z,98956.05
2019-05-26T23:26:11.583Z,98956.22
2019-05-26T23:28:38.213Z,98956.87
2019-05-26T23:31:04.803Z,98966.23
2019-05-26T23:33:31.396Z,98958.86
2019-05-26T23:35:58.033Z,98960.73
2019-05-26T23:38:24.680Z,98955.88
2019-05-26T23:40:51.274Z,98959.89
2019-05-26T23:43:17.877Z,98959.05
2019-05-26T23:45:44.498Z,98967.23
2019-05-26T23:48:11.146Z,98957.53
2019-05-26T23:50:37.894Z,98965.72
2019-05-26T23:53:04.506Z,98959.52
2019-05-26T23:55:31.101Z,98962.54
2019-05-26T23:57:57.755Z,98961.05
